Time;durP1;ratioP1;P1;durP2;ratioP2;P2;SDS_P1;SDS_P2;PMS_P1;PMS_P2;Temp;Humidity;BMP_temperature;BMP_pressure;BME280_temperature;BME280_humidity;BME280_pressure;Samples;Min_cycle;Max_cycle;Signal;HPM_P1;HPM_P2
2022/04/14 00:00:27;;;;;;;20.90;11.63;;;13.50;99.90;;;;;;5093995;28;20391;-40
2022/04/14 00:02:53;;;;;;;26.65;12.20;;;13.50;99.90;;;;;;5095555;28;20388;-38
2022/04/14 00:05:19;;;;;;;24.17;11.63;;;13.50;99.90;;;;;;5094810;28;20023;-37
2022/04/14 00:07:44;;;;;;;24.13;12.23;;;13.40;99.90;;;;;;5095323;28;20024;-38
2022/04/14 00:10:11;;;;;;;27.48;12.20;;;13.40;99.90;;;;;;5095072;28;20028;-39
2022/04/14 00:12:38;;;;;;;25.52;12.02;;;13.40;99.90;;;;;;5095090;28;20499;-37
2022/04/14 00:15:04;;;;;;;24.65;13.18;;;13.40;99.90;;;;;;5094693;28;20102;-39
2022/04/14 00:17:34;;;;;;;26.43;11.57;;;13.30;99.90;;;;;;5095167;28;20024;-46
2022/04/14 00:20:06;;;;;;;22.42;11.85;;;13.30;99.90;;;;;;5095234;28;20059;-38
2022/04/14 00:22:32;;;;;;;30.90;13.73;;;13.20;99.90;;;;;;5095158;28;20020;-38
2022/04/14 00:24:57;;;;;;;23.60;12.40;;;13.20;99.90;;;;;;5094568;28;20036;-37
2022/04/14 00:27:23;;;;;;;31.88;12.73;;;13.20;99.90;;;;;;5094906;28;20383;-38
2022/04/14 00:29:49;;;;;;;26.40;11.13;;;13.10;99.90;;;;;;5094826;28;20032;-39
2022/04/14 00:32:15;;;;;;;24.13;12.38;;;13.10;99.90;;;;;;5094737;28;20468;-38
2022/04/14 00:34:40;;;;;;;27.80;12.88;;;13.20;99.90;;;;;;5094679;28;20024;-39
2022/04/14 00:37:07;;;;;;;21.58;12.40;;;13.20;99.90;;;;;;5094638;28;20081;-39
2022/04/14 00:39:32;;;;;;;25.10;12.45;;;13.20;99.90;;;;;;5094449;28;20027;-38
2022/04/14 00:41:58;;;;;;;25.13;12.70;;;13.20;99.90;;;;;;5094494;28;20016;-39
2022/04/14 00:44:24;;;;;;;26.05;13.43;;;13.20;99.90;;;;;;5093957;28;20050;-40
2022/04/14 00:46:49;;;;;;;25.52;12.90;;;13.20;99.90;;;;;;5094357;28;20464;-39
2022/04/14 00:49:15;;;;;;;28.50;12.05;;;13.20;99.90;;;;;;5094400;28;20024;-39
2022/04/14 00:51:41;;;;;;;28.92;12.10;;;13.20;99.90;;;;;;5094440;28;20487;-39
2022/04/14 00:54:07;;;;;;;27.90;12.85;;;13.20;99.90;;;;;;5094081;28;20057;-38
2022/04/14 00:56:33;;;;;;;25.45;12.60;;;13.20;99.90;;;;;;5094128;28;20028;-39
2022/04/14 00:58:58;;;;;;;25.48;12.90;;;13.10;99.90;;;;;;5092977;28;20093;-37
2022/04/14 01:01:24;;;;;;;25.98;12.57;;;13.10;99.90;;;;;;5094270;28;20028;-42
2022/04/14 01:03:51;;;;;;;25.92;11.98;;;13.10;99.90;;;;;;5094186;28;20016;-38
2022/04/14 01:06:23;;;;;;;23.02;11.70;;;13.00;99.90;;;;;;5092066;28;20021;-38
2022/04/14 01:11:36;;;;;;;24.42;11.55;;;12.90;99.90;;;;;;5094130;28;20065;-38
2022/04/14 01:14:02;;;;;;;26.52;12.23;;;12.90;99.90;;;;;;5093796;28;20430;-39
2022/04/14 01:16:28;;;;;;;21.75;11.38;;;12.90;99.90;;;;;;5093915;28;20544;-38
2022/04/14 01:18:53;;;;;;;20.45;11.07;;;12.80;99.90;;;;;;5093970;28;20058;-38
2022/04/14 01:21:21;;;;;;;21.95;11.68;;;12.80;99.90;;;;;;5093789;28;20066;-38
2022/04/14 01:23:47;;;;;;;;;;;12.80;99.90;;;;;;5093960;28;20040;-38
2022/04/14 01:26:13;;;;;;;20.90;10.95;;;12.80;99.90;;;;;;5093767;28;19904;-39
2022/04/14 01:28:38;;;;;;;21.58;11.05;;;12.80;99.90;;;;;;5092599;28;20063;-37
2022/04/14 01:31:04;;;;;;;22.10;11.25;;;12.70;99.90;;;;;;5093174;28;20024;-39
2022/04/14 01:33:30;;;;;;;24.38;11.80;;;12.70;99.90;;;;;;5093630;28;20069;-38
2022/04/14 01:35:55;;;;;;;27.63;10.57;;;12.70;99.90;;;;;;5093700;28;20527;-37
2022/04/14 01:38:21;;;;;;;30.50;10.45;;;12.70;99.90;;;;;;5093604;28;20472;-37
2022/04/14 01:40:47;;;;;;;19.77;11.18;;;12.70;99.90;;;;;;5093566;28;20391;-38
2022/04/14 01:43:13;;;;;;;23.55;11.20;;;12.60;99.90;;;;;;5093441;28;20020;-38
2022/04/14 01:45:39;;;;;;;32.55;12.13;;;12.60;99.90;;;;;;5093325;28;20022;-40
2022/04/14 01:48:04;;;;;;;24.33;10.30;;;12.60;99.90;;;;;;5093222;28;20020;-50
2022/04/14 01:50:30;;;;;;;17.35;10.23;;;12.60;99.90;;;;;;5093309;28;20024;-40
2022/04/14 01:52:56;;;;;;;17.98;9.85;;;12.50;99.90;;;;;;5092016;28;20537;-37
2022/04/14 01:55:21;;;;;;;24.70;10.95;;;12.40;99.90;;;;;;5093420;28;20071;-38
2022/04/14 01:57:47;;;;;;;18.67;10.20;;;12.40;99.90;;;;;;5093263;28;20023;-39
2022/04/14 02:00:14;;;;;;;21.48;10.82;;;12.30;99.90;;;;;;5093266;28;20028;-39
2022/04/14 02:02:40;;;;;;;22.73;11.82;;;12.30;99.90;;;;;;5093263;28;20024;-37
2022/04/14 02:05:06;;;;;;;25.20;11.48;;;12.20;99.90;;;;;;5093026;28;20028;-38
2022/04/14 02:07:32;;;;;;;24.33;10.82;;;12.20;99.90;;;;;;5093270;28;20024;-38
2022/04/14 02:09:58;;;;;;;22.08;11.35;;;12.20;99.90;;;;;;5092882;28;20039;-37
2022/04/14 02:12:26;;;;;;;18.13;10.30;;;12.10;99.90;;;;;;5093384;28;20070;-38
2022/04/14 02:14:53;;;;;;;22.08;11.45;;;12.10;99.90;;;;;;5093049;28;20028;-39
2022/04/14 02:17:18;;;;;;;22.40;9.88;;;12.10;99.90;;;;;;5091370;28;20028;-38
2022/04/14 02:19:44;;;;;;;24.58;11.77;;;12.00;99.90;;;;;;5097016;28;20395;-37
2022/04/14 02:22:10;;;;;;;21.80;12.30;;;12.00;99.90;;;;;;5097172;28;20047;-39
2022/04/14 02:24:37;;;;;;;19.63;10.70;;;12.00;99.90;;;;;;5097114;28;20526;-39
2022/04/14 02:27:03;;;;;;;21.40;11.27;;;12.00;99.90;;;;;;5097220;28;20103;-39
2022/04/14 02:29:29;;;;;;;20.77;10.90;;;11.90;99.90;;;;;;5096883;28;20122;-38
2022/04/14 02:31:57;;;;;;;21.52;11.63;;;11.90;99.90;;;;;;5097379;28;20016;-38
2022/04/14 02:34:26;;;;;;;27.65;11.32;;;11.90;99.90;;;;;;5097008;28;20035;-39
2022/04/14 02:36:53;;;;;;;21.75;10.93;;;11.80;99.90;;;;;;5097037;28;20031;-38
2022/04/14 02:39:18;;;;;;;21.70;10.57;;;11.80;99.90;;;;;;5095988;28;20027;-48
2022/04/14 02:41:45;;;;;;;22.58;10.52;;;11.80;99.90;;;;;;5096963;28;20384;-38
2022/04/14 02:44:11;;;;;;;19.55;11.23;;;11.70;99.90;;;;;;5096838;28;20361;-38
2022/04/14 02:46:37;;;;;;;25.83;11.30;;;11.70;99.90;;;;;;5096556;28;20027;-38
2022/04/14 02:49:02;;;;;;;22.90;11.60;;;11.70;99.90;;;;;;5096746;28;20015;-40
2022/04/14 02:51:28;;;;;;;21.98;10.15;;;11.60;99.90;;;;;;5097020;28;20051;-39
2022/04/14 02:53:53;;;;;;;21.73;10.27;;;11.60;99.90;;;;;;5096691;28;20036;-38
2022/04/14 02:56:19;;;;;;;23.70;11.13;;;11.60;99.90;;;;;;5096444;28;20028;-38
2022/04/14 02:58:46;;;;;;;24.98;11.50;;;11.50;99.90;;;;;;5096465;28;20392;-41
2022/04/14 03:01:11;;;;;;;26.80;10.73;;;11.50;99.90;;;;;;5096633;28;20532;-39
2022/04/14 03:03:40;;;;;;;21.52;10.27;;;11.50;99.90;;;;;;5096319;28;20024;-39
2022/04/14 03:06:05;;;;;;;19.95;10.57;;;11.40;99.90;;;;;;5096746;28;20104;-38
2022/04/14 03:08:31;;;;;;;27.63;11.20;;;11.40;99.90;;;;;;5096348;28;20039;-37
2022/04/14 03:10:57;;;;;;;20.00;11.73;;;11.40;99.90;;;;;;5096271;28;20027;-38
2022/04/14 03:13:23;;;;;;;20.17;11.98;;;11.30;99.90;;;;;;5096256;28;20020;-38
2022/04/14 03:15:49;;;;;;;28.40;13.10;;;11.30;99.90;;;;;;5096457;28;20032;-39
2022/04/14 03:18:15;;;;;;;23.23;11.55;;;11.20;99.90;;;;;;5096218;28;20476;-40
2022/04/14 03:20:41;;;;;;;29.45;14.02;;;11.20;99.90;;;;;;5096460;28;20070;-40
2022/04/14 03:23:07;;;;;;;27.30;11.77;;;11.10;99.90;;;;;;5095711;28;20044;-38
2022/04/14 03:25:32;;;;;;;23.27;12.43;;;11.10;99.90;;;;;;5094991;28;20020;-38
2022/04/14 03:27:58;;;;;;;27.88;12.85;;;11.10;99.90;;;;;;5094551;28;20026;-38
2022/04/14 03:30:24;;;;;;;21.67;11.50;;;11.10;99.90;;;;;;5094455;28;20044;-39
2022/04/14 03:32:49;;;;;;;23.25;12.15;;;11.00;99.90;;;;;;5094865;28;20020;-39
2022/04/14 03:35:18;;;;;;;23.20;11.65;;;11.00;99.90;;;;;;5094940;28;20067;-39
2022/04/14 03:37:44;;;;;;;32.85;13.13;;;10.90;99.90;;;;;;5094505;28;20097;-41
2022/04/14 03:40:11;;;;;;;20.45;11.35;;;10.90;99.90;;;;;;5094930;28;20480;-39
2022/04/14 03:42:36;;;;;;;24.42;12.77;;;10.90;99.90;;;;;;5094620;28;20025;-39
2022/04/14 03:45:04;;;;;;;24.48;12.82;;;10.90;99.90;;;;;;5094587;28;20016;-39
2022/04/14 03:47:29;;;;;;;19.67;10.98;;;10.90;99.90;;;;;;5094300;28;20028;-38
2022/04/14 03:49:55;;;;;;;27.83;12.35;;;10.90;99.90;;;;;;5094876;28;20102;-39
2022/04/14 03:52:21;;;;;;;22.55;12.35;;;10.90;99.90;;;;;;5094543;28;20032;-40
2022/04/14 03:54:46;;;;;;;27.50;12.43;;;10.90;99.90;;;;;;5094777;28;20043;-39
2022/04/14 03:57:12;;;;;;;27.42;11.73;;;10.90;99.90;;;;;;5094223;28;20467;-37
2022/04/14 03:59:38;;;;;;;23.27;11.50;;;10.90;99.90;;;;;;5094320;28;20031;-41
2022/04/14 04:02:04;;;;;;;25.88;12.20;;;10.90;99.90;;;;;;5092270;28;20044;-40
2022/04/14 04:04:31;;;;;;;23.55;12.05;;;10.80;99.90;;;;;;5092353;28;20077;-37
2022/04/14 04:06:57;;;;;;;24.38;11.63;;;10.80;99.90;;;;;;5094586;28;20505;-39
2022/04/14 04:09:22;;;;;;;22.38;11.57;;;10.80;99.90;;;;;;5094247;28;20045;-40
2022/04/14 04:11:48;;;;;;;28.88;12.80;;;10.80;99.90;;;;;;5094438;28;20027;-41
2022/04/14 04:14:14;;;;;;;26.77;13.23;;;10.80;99.90;;;;;;5094248;28;20024;-39
2022/04/14 04:16:40;;;;;;;23.13;12.90;;;10.80;99.90;;;;;;5094112;28;20476;-40
2022/04/14 04:19:05;;;;;;;27.65;13.38;;;10.80;99.90;;;;;;5094194;28;20028;-39
2022/04/14 04:21:31;;;;;;;24.40;12.27;;;10.70;99.90;;;;;;5093525;28;20023;-39
2022/04/14 04:23:57;;;;;;;27.07;12.53;;;10.70;99.90;;;;;;5055435;28;1092948;-38
2022/04/14 04:26:23;;;;;;;27.95;11.93;;;10.70;99.90;;;;;;5094871;28;20035;-39
2022/04/14 04:28:48;;;;;;;27.98;12.32;;;10.70;99.90;;;;;;5094874;28;20027;-39
2022/04/14 04:31:14;;;;;;;24.60;13.45;;;10.60;99.90;;;;;;5094823;28;20400;-39
2022/04/14 04:33:39;;;;;;;28.13;13.15;;;10.60;99.90;;;;;;5094635;28;20024;-38
2022/04/14 04:36:06;;;;;;;22.88;11.52;;;10.60;99.90;;;;;;5094767;28;20028;-38
2022/04/14 04:38:32;;;;;;;25.90;12.93;;;10.60;99.90;;;;;;5094584;28;20032;-38
2022/04/14 04:40:58;;;;;;;29.17;12.73;;;10.60;99.90;;;;;;5109091;28;20040;-39
2022/04/14 04:43:25;;;;;;;22.63;11.20;;;10.50;99.90;;;;;;5094688;28;20476;-42
2022/04/14 04:45:51;;;;;;;21.17;11.75;;;10.50;99.90;;;;;;5094487;28;20065;-38
2022/04/14 04:48:16;;;;;;;21.90;11.23;;;10.50;99.90;;;;;;5094496;28;20387;-38
2022/04/14 04:50:42;;;;;;;25.17;11.95;;;10.50;99.90;;;;;;5094461;28;20495;-37
2022/04/14 04:53:08;;;;;;;23.92;12.52;;;10.50;99.90;;;;;;5094299;28;20090;-39
2022/04/14 04:55:34;;;;;;;26.50;13.88;;;10.50;99.90;;;;;;5094402;28;20035;-39
2022/04/14 04:58:00;;;;;;;23.45;12.52;;;10.40;99.90;;;;;;5092783;28;20040;-39
2022/04/14 05:00:25;;;;;;;27.30;13.05;;;10.40;99.90;;;;;;5094125;28;20039;-39
2022/04/14 05:02:51;;;;;;;19.85;11.60;;;10.40;99.90;;;;;;5094312;28;20111;-39
2022/04/14 05:05:17;;;;;;;22.30;12.48;;;10.40;99.90;;;;;;5093906;28;20414;-39
2022/04/14 05:07:43;;;;;;;24.73;12.23;;;10.40;99.90;;;;;;5094352;28;20413;-38
2022/04/14 05:10:09;;;;;;;17.90;10.90;;;10.40;99.90;;;;;;5093950;28;20105;-38
2022/04/14 05:12:34;;;;;;;21.00;11.52;;;10.40;99.90;;;;;;5094075;28;20039;-40
2022/04/14 05:15:00;;;;;;;26.35;13.30;;;10.40;99.90;;;;;;5094011;28;20032;-39
2022/04/14 05:17:25;;;;;;;24.70;12.57;;;10.40;99.90;;;;;;5093525;28;20099;-40
2022/04/14 05:19:51;;;;;;;22.70;11.38;;;10.40;99.90;;;;;;5093639;28;20038;-41
2022/04/14 05:22:16;;;;;;;22.25;12.05;;;10.50;99.90;;;;;;5093940;28;20462;-39
2022/04/14 05:24:42;;;;;;;23.73;13.18;;;10.50;99.90;;;;;;5093565;28;20056;-42
2022/04/14 05:27:08;;;;;;;23.13;12.45;;;10.60;99.90;;;;;;5093813;28;20032;-40
2022/04/14 05:29:35;;;;;;;22.30;11.70;;;10.70;99.90;;;;;;5093643;28;20031;-37
2022/04/14 05:32:04;;;;;;;20.92;11.70;;;10.70;99.90;;;;;;5093994;28;20430;-38
2022/04/14 05:34:29;;;;;;;18.30;10.63;;;10.80;99.90;;;;;;5093474;28;20476;-37
2022/04/14 05:36:55;;;;;;;23.48;11.88;;;10.80;99.90;;;;;;5092684;28;20035;-37
2022/04/14 05:39:20;;;;;;;21.45;11.25;;;10.90;99.90;;;;;;5092917;28;20032;-39
2022/04/14 05:41:46;;;;;;;20.83;11.20;;;10.90;99.90;;;;;;5093301;28;20090;-39
2022/04/14 05:44:11;;;;;;;21.23;10.98;;;10.90;99.90;;;;;;5093366;28;20059;-39
2022/04/14 05:46:38;;;;;;;21.65;11.27;;;10.90;99.90;;;;;;5093617;28;20012;-37
2022/04/14 05:49:03;;;;;;;23.27;11.18;;;11.00;99.90;;;;;;5093631;28;20024;-39
2022/04/14 05:51:29;;;;;;;21.70;10.48;;;11.00;99.90;;;;;;5093331;28;20507;-39
2022/04/14 05:53:55;;;;;;;23.73;11.82;;;11.10;99.90;;;;;;5093333;28;20039;-39
2022/04/14 05:56:20;;;;;;;21.08;11.27;;;11.10;99.90;;;;;;5093218;28;20024;-39
2022/04/14 05:58:46;;;;;;;24.60;11.73;;;11.20;99.90;;;;;;5093644;28;20132;-39
2022/04/14 06:01:12;;;;;;;23.10;11.50;;;11.30;99.90;;;;;;5093014;28;20539;-38
2022/04/14 06:03:40;;;;;;;21.15;10.98;;;11.40;99.90;;;;;;5093276;28;20035;-38
2022/04/14 06:06:05;;;;;;;23.08;10.60;;;11.40;99.90;;;;;;5093397;28;20440;-40
2022/04/14 06:08:31;;;;;;;20.33;10.23;;;11.50;99.90;;;;;;5093308;28;20048;-44
2022/04/14 06:10:57;;;;;;;21.40;10.95;;;11.60;99.90;;;;;;5093147;28;20024;-38
2022/04/14 06:13:23;;;;;;;19.17;10.40;;;11.70;99.90;;;;;;5091771;28;20090;-46
2022/04/14 06:15:48;;;;;;;21.23;10.50;;;11.80;99.90;;;;;;5093080;28;20103;-38
2022/04/14 06:18:14;;;;;;;22.40;10.57;;;11.80;99.90;;;;;;5093007;28;20020;-39
2022/04/14 06:20:40;;;;;;;21.30;11.18;;;12.00;99.90;;;;;;5093290;28;20028;-39
2022/04/14 06:23:05;;;;;;;24.08;11.43;;;12.00;99.90;;;;;;5092954;28;20059;-39
2022/04/14 06:25:31;;;;;;;18.00;10.48;;;12.10;99.90;;;;;;5092921;28;20111;-38
2022/04/14 06:27:57;;;;;;;21.92;10.85;;;12.20;99.90;;;;;;5093265;28;20485;-38
2022/04/14 06:30:23;;;;;;;22.20;10.23;;;12.30;99.90;;;;;;5093245;28;20022;-39
2022/04/14 06:32:58;;;;;;;24.48;11.55;;;12.40;99.90;;;;;;5092859;28;20527;-37
2022/04/14 06:35:24;;;;;;;22.60;10.45;;;12.50;99.90;;;;;;5092890;28;20031;-39
2022/04/14 06:37:50;;;;;;;26.10;10.05;;;12.50;99.90;;;;;;5093132;28;20016;-38
2022/04/14 06:40:16;;;;;;;22.10;10.73;;;12.60;99.90;;;;;;5092704;28;20146;-39
2022/04/14 06:42:41;;;;;;;15.65;9.00;;;12.70;99.90;;;;;;5092820;28;20046;-41
2022/04/14 06:45:07;;;;;;;16.67;8.68;;;12.80;99.90;;;;;;5092967;28;20034;-39
2022/04/14 06:47:33;;;;;;;19.80;9.88;;;12.90;99.90;;;;;;5107004;28;20027;-39
2022/04/14 06:49:59;;;;;;;13.73;8.27;;;13.00;99.90;;;;;;5092437;28;20517;-39
2022/04/14 06:52:24;;;;;;;17.42;9.02;;;13.20;99.90;;;;;;5092463;28;20114;-39
2022/04/14 06:54:50;;;;;;;17.13;8.98;;;13.30;99.90;;;;;;5090952;28;20506;-38
2022/04/14 06:57:16;;;;;;;18.00;9.35;;;13.30;99.90;;;;;;5092443;28;20059;-39
2022/04/14 06:59:42;;;;;;;21.13;9.68;;;13.30;99.90;;;;;;5096104;28;20016;-38
2022/04/14 07:02:08;;;;;;;18.50;8.50;;;13.30;99.90;;;;;;5092435;28;20024;-40
2022/04/14 07:04:34;;;;;;;21.75;9.45;;;13.50;99.90;;;;;;5091969;28;20495;-38
2022/04/14 07:07:00;;;;;;;15.13;8.70;;;13.50;99.90;;;;;;5096251;28;20016;-45
2022/04/14 07:09:29;;;;;;;18.05;8.93;;;13.60;99.90;;;;;;5096269;28;20024;-38
2022/04/14 07:11:56;;;;;;;16.40;9.13;;;13.70;99.90;;;;;;5088145;28;20032;-39
2022/04/14 07:14:21;;;;;;;17.67;9.70;;;13.80;99.90;;;;;;5085793;28;20181;-39
2022/04/14 07:16:47;;;;;;;18.40;8.70;;;13.90;99.90;;;;;;5094345;28;20111;-38
2022/04/14 07:19:12;;;;;;;13.48;8.07;;;13.80;99.90;;;;;;5095263;28;20099;-40
2022/04/14 07:21:38;;;;;;;17.83;9.38;;;13.80;99.90;;;;;;5089526;28;20020;-38
2022/04/14 07:24:04;;;;;;;20.42;9.02;;;13.80;99.90;;;;;;5092612;28;20059;-37
2022/04/14 07:26:29;;;;;;;23.33;8.70;;;13.90;99.90;;;;;;5095039;28;20093;-39
2022/04/14 07:28:55;;;;;;;20.05;9.88;;;13.90;99.90;;;;;;5094089;28;20024;-35
2022/04/14 07:31:20;;;;;;;20.83;9.68;;;14.00;99.90;;;;;;5080809;28;20166;-38
2022/04/14 07:33:46;;;;;;;14.18;7.82;;;13.90;99.90;;;;;;5095982;28;20035;-39
2022/04/14 07:36:18;;;;;;;20.88;9.10;;;13.70;99.90;;;;;;5094451;28;20028;-42
2022/04/14 07:38:43;;;;;;;20.50;9.13;;;13.70;99.90;;;;;;5093267;28;20074;-39
2022/04/14 07:41:09;;;;;;;13.38;8.15;;;13.80;99.90;;;;;;5091540;28;20549;-39
2022/04/14 07:43:35;;;;;;;19.52;9.20;;;14.00;99.90;;;;;;5092838;28;20020;-39
2022/04/14 07:46:01;;;;;;;15.65;8.13;;;14.20;99.90;;;;;;5096535;28;20410;-39
2022/04/14 07:48:27;;;;;;;14.10;8.30;;;14.20;99.90;;;;;;5116348;28;20020;-38
2022/04/14 07:50:52;;;;;;;17.90;7.90;;;14.30;99.90;;;;;;5096921;28;20395;-37
2022/04/14 07:53:18;;;;;;;15.48;8.38;;;14.30;99.90;;;;;;5095276;28;20107;-38
2022/04/14 07:55:44;;;;;;;17.92;7.85;;;14.40;99.90;;;;;;5095652;28;20107;-37
2022/04/14 07:58:10;;;;;;;15.25;6.60;;;14.50;99.90;;;;;;5093893;28;20028;-39
2022/04/14 08:00:39;;;;;;;16.75;6.82;;;14.50;99.90;;;;;;5095047;28;20063;-37
2022/04/14 08:03:06;;;;;;;15.55;6.93;;;14.60;99.90;;;;;;5094327;28;20379;-38
2022/04/14 08:05:37;;;;;;;16.02;7.55;;;14.70;99.90;;;;;;5094541;28;20027;-40
2022/04/14 08:08:05;;;;;;;20.83;8.43;;;14.80;99.90;;;;;;5091156;28;20016;-48
2022/04/14 08:10:31;;;;;;;21.95;7.07;;;15.00;99.90;;;;;;5095117;28;20028;-39
2022/04/14 08:12:57;;;;;;;16.08;8.32;;;15.00;99.90;;;;;;5093064;28;20027;-38
2022/04/14 08:15:23;;;;;;;11.35;6.53;;;15.00;99.90;;;;;;5089464;28;20024;-38
2022/04/14 08:17:49;;;;;;;11.77;6.50;;;15.00;99.90;;;;;;5092355;28;20024;-39
2022/04/14 08:20:16;;;;;;;14.73;6.57;;;15.00;99.90;;;;;;5094243;28;20487;-40
2022/04/14 08:22:46;;;;;;;16.13;7.25;;;15.10;99.90;;;;;;5087348;28;20376;-46
2022/04/14 08:25:19;;;;;;;11.60;6.80;;;15.10;99.90;;;;;;5093363;28;20036;-40
2022/04/14 08:27:47;;;;;;;12.77;6.85;;;15.20;99.90;;;;;;5093437;28;20396;-38
2022/04/14 08:30:13;;;;;;;15.48;7.53;;;15.40;99.90;;;;;;5091958;28;20459;-38
2022/04/14 08:32:39;;;;;;;20.63;8.48;;;15.60;99.90;;;;;;5092125;28;20020;-38
2022/04/14 08:35:05;;;;;;;16.80;7.30;;;15.70;99.90;;;;;;5093729;28;20514;-39
2022/04/14 08:37:31;;;;;;;11.85;6.68;;;15.90;99.90;;;;;;5093864;28;20086;-39
2022/04/14 08:42:52;;;;;;;17.50;7.15;;;16.30;99.90;;;;;;5093622;28;20031;-38
2022/04/14 08:45:21;;;;;;;17.10;7.10;;;16.50;99.90;;;;;;5094029;28;20110;-39
2022/04/14 08:47:49;;;;;;;14.40;6.68;;;16.60;99.90;;;;;;5095358;28;20111;-38
2022/04/14 08:50:16;;;;;;;16.40;7.03;;;16.80;99.90;;;;;;5094387;28;20384;-40
2022/04/14 08:52:42;;;;;;;17.80;6.97;;;16.90;99.90;;;;;;5093843;28;20056;-39
2022/04/14 08:55:11;;;;;;;12.02;5.88;;;16.90;99.90;;;;;;5094053;28;20020;-40
2022/04/14 08:57:41;;;;;;;14.88;6.78;;;17.00;99.90;;;;;;5094411;28;20038;-38
2022/04/14 09:00:08;;;;;;;8.98;5.65;;;17.20;99.90;;;;;;5073925;28;20059;-38
2022/04/14 09:02:34;;;;;;;;;;;17.30;99.90;;;;;;5090149;28;20483;-40
2022/04/14 09:05:03;;;;;;;9.75;5.97;;;17.40;99.90;;;;;;5092721;28;19908;-40
2022/04/14 09:07:29;;;;;;;13.93;5.80;;;17.50;99.90;;;;;;5093328;28;20033;-40
2022/04/14 09:09:55;;;;;;;11.73;5.30;;;17.60;99.90;;;;;;5093745;28;20472;-40
2022/04/14 09:12:21;;;;;;;10.60;5.13;;;17.80;99.90;;;;;;5092739;28;20506;-39
2022/04/14 09:14:47;;;;;;;12.10;6.43;;;17.90;99.90;;;;;;5093866;28;20044;-40
2022/04/14 09:17:13;;;;;;;10.88;5.95;;;17.80;99.90;;;;;;5089441;28;20095;-37
2022/04/14 09:19:39;;;;;;;12.18;6.63;;;17.90;99.90;;;;;;5086285;28;20548;-39
2022/04/14 09:22:07;;;;;;;10.20;5.45;;;18.10;99.90;;;;;;5094114;28;20020;-41
2022/04/14 09:24:44;;;;;;;;;;;18.20;99.90;;;;;;5094222;28;20385;-45
2022/04/14 09:27:22;;;;;;;;;;;18.30;99.90;;;;;;5093667;28;20427;-40
2022/04/14 09:29:48;;;;;;;12.50;6.43;;;18.40;99.90;;;;;;5086570;28;19931;-50
2022/04/14 09:32:32;;;;;;;9.25;5.47;;;18.50;99.90;;;;;;5091697;28;20024;-41
2022/04/14 09:34:59;;;;;;;13.55;5.75;;;18.60;99.90;;;;;;5092694;28;20056;-46
2022/04/14 09:37:26;;;;;;;12.68;5.38;;;18.60;99.90;;;;;;5093226;28;20016;-40
2022/04/14 09:40:02;;;;;;;7.95;4.00;;;18.40;99.90;;;;;;5092291;28;20024;-50
2022/04/14 09:42:32;;;;;;;27.38;10.15;;;18.40;99.90;;;;;;5091558;28;20047;-39
2022/04/14 09:45:23;;;;;;;17.05;7.47;;;18.40;99.90;;;;;;5091997;28;20481;-41
2022/04/14 09:47:50;;;;;;;15.88;6.05;;;18.70;99.90;;;;;;5089957;28;20392;-40
2022/04/14 09:50:31;;;;;;;14.65;5.47;;;19.10;99.90;;;;;;5087945;28;20077;-38
2022/04/14 09:53:03;;;;;;;15.52;6.05;;;19.40;99.90;;;;;;5089889;28;20028;-39
2022/04/14 09:55:29;;;;;;;10.00;5.43;;;19.40;99.90;;;;;;5090815;28;20106;-39
2022/04/14 09:58:13;;;;;;;15.60;6.03;;;19.40;99.90;;;;;;5092365;28;20073;-37
2022/04/14 10:00:47;;;;;;;9.18;5.57;;;19.60;99.90;;;;;;5092979;28;20028;-42
2022/04/14 10:03:14;;;;;;;14.68;5.82;;;19.50;99.90;;;;;;5091349;28;20038;-38
2022/04/14 10:05:40;;;;;;;14.55;5.63;;;19.60;99.90;;;;;;5091591;28;20480;-40
2022/04/14 10:08:09;;;;;;;8.25;4.93;;;19.80;99.90;;;;;;5091752;28;20074;-40
2022/04/14 10:10:40;;;;;;;10.35;5.20;;;20.00;99.90;;;;;;5093248;28;20095;-39
2022/04/14 10:13:07;;;;;;;10.90;5.53;;;20.00;99.90;;;;;;5093226;28;20400;-41
2022/04/14 10:15:38;;;;;;;10.63;5.43;;;20.20;99.90;;;;;;5093179;28;20025;-51
2022/04/14 10:18:10;;;;;;;8.25;3.67;;;20.40;99.90;;;;;;5093263;28;20031;-39
2022/04/14 10:20:40;;;;;;;7.13;3.70;;;20.40;99.90;;;;;;5093201;28;20540;-41
2022/04/14 10:23:08;;;;;;;7.57;4.15;;;20.50;99.90;;;;;;5093129;28;20020;-40
2022/04/14 10:25:36;;;;;;;5.43;3.72;;;20.70;99.90;;;;;;5092899;28;20429;-40
2022/04/14 10:28:03;;;;;;;5.47;3.90;;;20.50;99.90;;;;;;5092252;28;20013;-39
2022/04/14 10:30:29;;;;;;;4.30;3.13;;;20.40;99.90;;;;;;5092582;28;20464;-40
2022/04/14 10:32:58;;;;;;;8.77;3.70;;;20.30;99.90;;;;;;5093177;28;20020;-40
2022/04/14 10:35:28;;;;;;;5.47;3.83;;;20.30;99.90;;;;;;5092925;28;20031;-38
2022/04/14 10:38:05;;;;;;;6.68;3.03;;;20.30;99.90;;;;;;5093096;28;20028;-40
2022/04/14 10:40:33;;;;;;;8.90;3.35;;;20.30;99.90;;;;;;5096218;28;20020;-39
2022/04/14 10:42:59;;;;;;;;;;;20.40;99.90;;;;;;5097656;28;20376;-41
2022/04/14 10:45:25;;;;;;;6.20;3.67;;;20.40;99.90;;;;;;5097091;28;20364;-40
2022/04/14 10:47:51;;;;;;;8.75;3.08;;;20.50;99.90;;;;;;5096799;28;20254;-40
2022/04/14 10:50:20;;;;;;;6.97;3.38;;;20.60;99.90;;;;;;5097046;28;20020;-40
2022/04/14 10:53:21;;;;;;;6.63;3.22;;;20.40;99.90;;;;;;5096768;28;20438;-40
2022/04/14 10:55:49;;;;;;;6.40;3.63;;;20.00;99.90;;;;;;5096187;28;20499;-39
2022/04/14 10:58:26;;;;;;;5.70;3.53;;;19.90;99.90;;;;;;5096474;28;20357;-40
2022/04/14 11:00:52;;;;;;;;;;;20.00;99.90;;;;;;5096990;28;20035;-40
2022/04/14 11:03:18;;;;;;;5.25;3.42;;;19.90;99.90;;;;;;5096470;28;20360;-40
2022/04/14 11:05:44;;;;;;;7.77;4.40;;;19.80;99.90;;;;;;5096306;28;20035;-40
2022/04/14 11:08:31;;;;;;;5.18;3.25;;;19.40;99.90;;;;;;5095819;28;20028;-38
2022/04/14 11:11:14;;;;;;;6.28;3.70;;;19.40;99.90;;;;;;5094674;28;20047;-40
2022/04/14 11:13:55;;;;;;;9.10;3.53;;;19.60;99.90;;;;;;5096386;28;20030;-39
2022/04/14 11:16:48;;;;;;;6.22;3.75;;;19.70;99.90;;;;;;5094485;28;20043;-39
2022/04/14 11:19:19;;;;;;;5.85;2.80;;;19.40;99.90;;;;;;5096141;28;20032;-39
2022/04/14 11:22:04;;;;;;;4.55;2.95;;;19.60;99.90;;;;;;5095990;28;20075;-41
2022/04/14 11:24:36;;;;;;;4.10;2.22;;;20.10;99.90;;;;;;5095643;28;20073;-41
2022/04/14 11:27:22;;;;;;;6.53;2.70;;;20.10;99.90;;;;;;5096180;28;20542;-40
2022/04/14 11:29:51;;;;;;;4.35;3.00;;;19.80;99.90;;;;;;5095741;28;20036;-40
2022/04/14 11:32:35;;;;;;;4.22;2.78;;;19.70;99.90;;;;;;5096335;28;20532;-40
2022/04/14 11:35:08;;;;;;;6.63;3.20;;;19.70;99.90;;;;;;5096093;28;20012;-41
2022/04/14 11:37:45;;;;;;;4.97;3.47;;;19.90;99.90;;;;;;5096144;28;20081;-40
2022/04/14 11:40:20;;;;;;;3.10;2.67;;;20.00;99.90;;;;;;5095864;28;20479;-41
2022/04/14 11:42:49;;;;;;;4.63;2.70;;;20.20;99.90;;;;;;5095634;28;20012;-40
2022/04/14 11:45:21;;;;;;;4.32;2.15;;;20.30;99.90;;;;;;5095802;28;20460;-40
2022/04/14 11:47:49;;;;;;;3.72;3.13;;;20.30;99.90;;;;;;5095641;28;20012;-41
2022/04/14 11:50:22;;;;;;;7.82;3.22;;;20.20;99.90;;;;;;5095203;28;20058;-40
2022/04/14 11:52:49;;;;;;;6.78;3.97;;;20.30;99.90;;;;;;5095838;28;20024;-40
2022/04/14 11:55:39;;;;;;;8.93;3.58;;;20.20;99.90;;;;;;5095865;28;20020;-42
2022/04/14 11:58:10;;;;;;;3.47;2.55;;;20.00;99.90;;;;;;5095193;28;20480;-41
2022/04/14 12:00:42;;;;;;;5.35;2.70;;;20.00;99.90;;;;;;5095229;28;20031;-40
2022/04/14 12:03:08;;;;;;;7.55;3.15;;;19.90;99.90;;;;;;5095265;28;20020;-48
2022/04/14 12:05:34;;;;;;;8.25;3.88;;;19.80;99.90;;;;;;5095592;28;20025;-39
2022/04/14 12:08:10;;;;;;;6.78;3.33;;;19.50;99.90;;;;;;5095560;28;20468;-40
2022/04/14 12:10:37;;;;;;;4.30;3.13;;;19.00;99.90;;;;;;5095105;28;20028;-40
2022/04/14 12:13:12;;;;;;;4.93;3.30;;;19.00;99.90;;;;;;5094849;28;20097;-38
2022/04/14 12:15:38;;;;;;;4.80;3.92;;;19.50;99.90;;;;;;5074803;28;20036;-41
2022/04/14 12:18:11;;;;;;;3.95;3.40;;;19.80;99.90;;;;;;5074871;28;20028;-40
2022/04/14 12:20:44;;;;;;;3.70;2.38;;;19.70;99.90;;;;;;5075152;28;20096;-40
2022/04/14 12:23:12;;;;;;;5.72;3.17;;;19.40;99.90;;;;;;5074783;28;20017;-40
2022/04/14 12:25:39;;;;;;;5.13;3.40;;;19.30;99.90;;;;;;5086291;28;20036;-43
2022/04/14 12:28:06;;;;;;;8.13;5.70;;;19.60;99.90;;;;;;5094617;28;20046;-39
2022/04/14 12:30:32;;;;;;;6.32;3.92;;;19.80;99.90;;;;;;5094900;28;20789;-39
2022/04/14 12:33:03;;;;;;;5.57;4.03;;;19.90;99.90;;;;;;5094906;28;20468;-41
2022/04/14 12:35:35;;;;;;;3.85;2.70;;;20.20;99.90;;;;;;5094769;28;20543;-39
2022/04/14 12:38:19;;;;;;;8.38;3.20;;;20.40;99.90;;;;;;5094610;28;20024;-40
2022/04/14 12:41:04;;;;;;;7.75;2.97;;;20.60;99.90;;;;;;5094628;28;20524;-39
2022/04/14 12:43:38;;;;;;;9.13;2.55;;;20.50;99.90;;;;;;5094644;28;20012;-45